createdAt,value
2022-10-29T00:25:46.093Z,66
2022-10-29T00:54:45.241Z,66.04
2022-10-29T01:23:35.781Z,66.06
2022-10-29T01:52:31.052Z,66.07
2022-10-29T02:21:28.021Z,66.12
2022-10-29T02:51:06.527Z,66.13
2022-10-29T03:20:05.535Z,66.17
2022-10-29T03:49:08.369Z,66.27
2022-10-29T04:18:18.900Z,66.25
2022-10-29T04:48:05.162Z,66.24
2022-10-29T05:17:15.309Z,66.24
2022-10-29T05:46:09.070Z,66.39
2022-10-29T06:15:56.656Z,66.29
2022-10-29T07:14:12.965Z,66.44
2022-10-29T07:43:12.385Z,66.28
2022-10-29T08:11:59.932Z,66.19
2022-10-29T08:40:36.213Z,66.11
2022-10-29T09:09:17.784Z,66.04
2022-10-29T09:37:57.005Z,65.95
2022-10-29T10:06:27.985Z,65.85
2022-10-29T10:35:19.303Z,65.76
2022-10-29T11:33:38.631Z,65.52
2022-10-29T12:02:50.337Z,65.43
2022-10-29T12:31:31.267Z,65.32
2022-10-29T13:00:28.212Z,65.28
2022-10-29T13:29:22.020Z,65.2
2022-10-29T13:58:19.085Z,65.29
2022-10-29T15:25:18.412Z,65.22
2022-10-29T16:52:30.674Z,65.4
2022-10-29T17:21:02.195Z,65.4
2022-10-29T17:49:40.405Z,65.39
2022-10-29T18:18:07.695Z,65.49
2022-10-29T18:47:20.746Z,65.61
2022-10-29T19:16:09.841Z,65.58
2022-10-29T19:45:01.764Z,65.58
2022-10-29T20:42:55.539Z,65.54
2022-10-29T21:11:33.261Z,65.6
2022-10-29T21:40:13.910Z,65.68
2022-10-29T22:38:30.360Z,65.74
2022-10-29T23:36:19.858Z,65.8
